Hlavní strana
METAR-TAF:

METAR-TAF

Letiště :

Zaqatala, Ázerbájdžán

zeměpisná šířka: 41-33-44N, zeměpisná délka: 46-40-02E, výška: 330 m

Aktuální stav počasí

Zpráva byla vytvořena před 10 minutami, v 01:00 UTC
vítr z různých směrů 2 kt
Teplota 6°C
Vlhkost vzduchu 93%
Tlak 1032 hPa
Viditelnost: 4000 m
Oblačno až skoro zataženo ve výšce 4000 ft
kouřmo

METAR: UBBY 040100Z VRB02KT 4000 BR BKN040 06/05 Q1032 R33/CLRD// NOSIG RMK MT OBSC

Čas: 05:10 (01:10 UTC)

Předpověď počasí

Zpráva byla vytvořena před 2 hodinami a 10 minutami, v 23:00 UTC
Předpověď platná od 04 v 00 UTC do 04 v 09 UTC
vítr z různých směrů 4 kt
Viditelnost: 4000 m
Polojasno ve výšce 700 ft
Oblačno až skoro zataženo ve výšce 3000 ft
kouřmo
Dočasný
od 04 v 00 UTC do 04 v 05 UTC
Viditelnost: 1100 m
Zataženo ve výšce 400 ft
mrholení

TAF: UBBY 032300Z 0400/0409 VRB04KT 4000 BR SCT007 BKN030 TEMPO 0400/0405 1100 DZ OVC004

Stav a předpovědi počasí z více než 4 000 letišť (zprávy METAR a TAF).

Červené a žluté tečky na mapě představují dostupné meteorologické stanice.

Když kurzor umístíte na tečku, zobrazí se název stanice.

Pak kliknutím zobrazíte stav a předpověď počasí.

Chcete-li změnit mapu, kliknutím na zelené tlačítko se znaménkem +mapu přiblížíte, kliknutím na zelené tlačítko se znaménkem – mapu oddálíte a kliknutím na zelené šipky přejdete na sousední mapy.


METAR-TAF: